Time;durP1;ratioP1;P1;durP2;ratioP2;P2;SDS_P1;SDS_P2;PMS_P1;PMS_P2;Temp;Humidity;BMP_temperature;BMP_pressure;BME280_temperature;BME280_humidity;BME280_pressure;Samples;Min_cycle;Max_cycle;Signal;HPM_P1;HPM_P2
2022/04/18 00:02:08;;;;;;;8.63;5.73;;;22.80;51.30;;;;;;5019874;28;20427;-82
2022/04/18 00:04:35;;;;;;;9.67;5.53;;;22.80;51.30;;;;;;5036407;28;20478;-82
2022/04/18 00:07:02;;;;;;;7.53;5.40;;;22.80;51.30;;;;;;5020058;28;20184;-82
2022/04/18 00:09:33;;;;;;;8.93;6.03;;;22.80;51.30;;;;;;5037234;28;20502;-83
2022/04/18 00:12:00;;;;;;;6.93;5.27;;;22.80;51.40;;;;;;5004355;28;20491;-83
2022/04/18 00:14:30;;;;;;;8.20;5.67;;;22.80;51.40;;;;;;5018859;28;20426;-82
2022/04/18 00:16:56;;;;;;;6.43;5.20;;;22.80;51.40;;;;;;5016219;28;20416;-82
2022/04/18 00:19:29;;;;;;;7.80;5.37;;;22.80;51.40;;;;;;5018649;28;20507;-82
2022/04/18 00:21:55;;;;;;;13.40;5.93;;;22.80;51.40;;;;;;5019574;28;20456;-82
2022/04/18 00:24:22;;;;;;;8.30;5.83;;;22.80;51.40;;;;;;5036890;28;20526;-83
2022/04/18 00:26:51;;;;;;;7.53;5.67;;;22.80;51.40;;;;;;5037069;28;20180;-82
2022/04/18 00:29:18;;;;;;;8.33;5.47;;;22.80;51.40;;;;;;5020656;28;20439;-82
2022/04/18 00:31:46;;;;;;;8.57;5.17;;;22.80;51.50;;;;;;5019481;28;20458;-82
2022/04/18 00:34:14;;;;;;;8.43;5.40;;;22.80;51.50;;;;;;5003266;28;20442;-82
2022/04/18 00:36:41;;;;;;;7.73;5.90;;;22.80;51.50;;;;;;5020193;28;20483;-82
2022/04/18 00:39:09;;;;;;;7.57;5.87;;;22.80;51.50;;;;;;5019628;28;20412;-82
2022/04/18 00:41:36;;;;;;;7.40;4.97;;;22.80;51.50;;;;;;5003342;28;20423;-82
2022/04/18 00:44:02;;;;;;;8.80;5.17;;;22.80;51.50;;;;;;5017925;28;20466;-82
2022/04/18 00:46:28;;;;;;;9.73;5.70;;;22.80;51.50;;;;;;5036446;28;20412;-82
2022/04/18 00:49:00;;;;;;;7.73;4.70;;;22.80;51.50;;;;;;5036489;28;20419;-82
2022/04/18 00:51:28;;;;;;;6.13;5.10;;;22.80;51.50;;;;;;5019564;28;20424;-82
2022/04/18 00:53:57;;;;;;;9.20;5.53;;;22.80;51.50;;;;;;5018954;28;20443;-82
2022/04/18 00:56:24;;;;;;;7.30;4.80;;;22.80;51.60;;;;;;5036382;28;20411;-82
2022/04/18 00:58:50;;;;;;;8.03;5.40;;;22.80;51.60;;;;;;5019025;28;20420;-82
2022/04/18 01:01:18;;;;;;;5.97;5.03;;;22.80;51.60;;;;;;5003484;28;20423;-82
2022/04/18 01:03:46;;;;;;;6.83;5.17;;;22.80;51.60;;;;;;5036613;28;20501;-82
2022/04/18 01:06:15;;;;;;;7.10;5.00;;;22.80;51.60;;;;;;5018817;28;20498;-82
2022/04/18 01:08:43;;;;;;;8.77;5.10;;;22.80;51.60;;;;;;5013072;28;20439;-82
2022/04/18 01:11:12;;;;;;;6.83;4.97;;;22.80;51.60;;;;;;5002719;28;20451;-82
2022/04/18 01:13:41;;;;;;;9.37;5.53;;;22.80;51.60;;;;;;5002466;28;20430;-83
2022/04/18 01:16:16;;;;;;;6.97;5.60;;;22.80;51.60;;;;;;5035234;28;20410;-82
2022/04/18 01:18:45;;;;;;;6.40;4.60;;;22.80;51.60;;;;;;5035942;28;20422;-82
2022/04/18 01:21:16;;;;;;;6.40;4.77;;;22.80;51.60;;;;;;5018566;28;20471;-82
2022/04/18 01:23:43;;;;;;;10.63;6.03;;;22.80;51.60;;;;;;5017957;28;20474;-82
2022/04/18 01:28:58;;;;;;;5.60;4.20;;;22.80;51.60;;;;;;5035978;28;20477;-82
2022/04/18 01:31:34;;;;;;;7.30;5.27;;;22.80;51.60;;;;;;5035455;28;20419;-82
2022/04/18 01:34:04;;;;;;;6.90;4.87;;;22.80;51.60;;;;;;5019656;28;20415;-82
2022/04/18 01:36:32;;;;;;;8.23;4.80;;;22.80;51.60;;;;;;5036390;28;20404;-82
2022/04/18 01:38:59;;;;;;;6.00;4.20;;;22.80;51.60;;;;;;5020049;28;20438;-82
2022/04/18 01:41:29;;;;;;;6.67;4.63;;;22.80;51.60;;;;;;5019642;28;20427;-82
2022/04/18 01:44:05;;;;;;;7.57;4.57;;;22.80;51.60;;;;;;5003686;28;20459;-82
2022/04/18 01:46:32;;;;;;;7.40;4.70;;;22.80;51.60;;;;;;5002355;28;20415;-82
2022/04/18 01:48:58;;;;;;;7.63;5.20;;;22.80;51.60;;;;;;5036933;28;20408;-81
2022/04/18 01:51:25;;;;;;;6.70;4.70;;;22.80;51.70;;;;;;5019081;28;20451;-82
2022/04/18 01:53:51;;;;;;;9.53;5.00;;;22.80;51.70;;;;;;5002389;28;20223;-82
2022/04/18 01:56:18;;;;;;;7.63;4.50;;;22.80;51.70;;;;;;5018113;28;20454;-82
2022/04/18 01:58:44;;;;;;;6.47;4.60;;;22.80;51.60;;;;;;5036441;28;20412;-82
2022/04/18 02:01:11;;;;;;;5.87;4.47;;;22.80;51.70;;;;;;5035507;28;20411;-82
2022/04/18 02:03:42;;;;;;;5.70;4.23;;;22.80;51.70;;;;;;5035680;28;20455;-82
2022/04/18 02:06:08;;;;;;;6.23;4.70;;;22.80;51.70;;;;;;5018052;28;20411;-82
2022/04/18 02:08:39;;;;;;;5.83;4.37;;;22.80;51.70;;;;;;5018380;28;20970;-82
2022/04/18 02:11:09;;;;;;;6.63;5.13;;;22.80;51.70;;;;;;5035996;28;20423;-82
2022/04/18 02:13:35;;;;;;;6.60;4.37;;;22.80;51.70;;;;;;5018240;28;20446;-82
2022/04/18 02:16:02;;;;;;;6.40;4.80;;;22.80;51.70;;;;;;5035283;28;20407;-82
2022/04/18 02:18:28;;;;;;;5.27;4.13;;;22.80;51.70;;;;;;5017733;28;20248;-83
2022/04/18 02:20:54;;;;;;;6.20;4.60;;;22.80;51.70;;;;;;5017068;28;20442;-82
2022/04/18 02:23:20;;;;;;;4.57;3.57;;;22.80;51.70;;;;;;5034622;28;20458;-82
2022/04/18 02:25:46;;;;;;;5.90;4.30;;;22.80;51.70;;;;;;5017111;28;20446;-82
2022/04/18 02:28:15;;;;;;;7.03;4.60;;;22.80;51.70;;;;;;5034792;28;20406;-82
2022/04/18 02:30:41;;;;;;;6.07;4.60;;;22.80;51.70;;;;;;5015694;28;20515;-82
2022/04/18 02:33:07;;;;;;;5.60;4.50;;;22.80;51.70;;;;;;5015593;28;20431;-82
2022/04/18 02:35:37;;;;;;;4.20;3.80;;;22.80;51.70;;;;;;5016178;28;20565;-82
2022/04/18 02:38:04;;;;;;;6.43;5.07;;;22.80;51.70;;;;;;5032893;28;20260;-82
2022/04/18 02:40:36;;;;;;;5.50;3.90;;;22.80;51.70;;;;;;5016063;28;20454;-82
2022/04/18 02:43:05;;;;;;;4.33;3.63;;;22.80;51.70;;;;;;5016808;28;20454;-82
2022/04/18 02:45:32;;;;;;;7.43;5.23;;;22.80;51.70;;;;;;5015379;28;20458;-82
2022/04/18 02:47:59;;;;;;;6.00;4.20;;;22.80;51.70;;;;;;5033038;28;20419;-82
2022/04/18 02:50:26;;;;;;;4.83;3.80;;;22.80;51.80;;;;;;5033000;28;20418;-82
2022/04/18 02:52:53;;;;;;;5.83;4.20;;;22.80;51.70;;;;;;5032841;28;20415;-82
2022/04/18 02:55:20;;;;;;;4.73;4.13;;;22.80;51.80;;;;;;5032664;28;20435;-82
2022/04/18 02:57:47;;;;;;;5.43;4.00;;;22.80;51.70;;;;;;4999825;28;20411;-82
2022/04/18 03:00:15;;;;;;;4.90;4.07;;;22.80;51.80;;;;;;5015699;28;20426;-82
2022/04/18 03:02:43;;;;;;;5.20;4.50;;;22.80;51.70;;;;;;5032191;28;20427;-82
2022/04/18 03:05:13;;;;;;;7.10;4.60;;;22.80;51.80;;;;;;5012889;28;20416;-82
2022/04/18 03:07:39;;;;;;;6.23;4.13;;;22.80;51.70;;;;;;5008895;28;20423;-82
2022/04/18 03:10:06;;;;;;;4.97;4.27;;;22.80;51.70;;;;;;4996294;28;20427;-82
2022/04/18 03:12:32;;;;;;;4.57;3.63;;;22.80;51.70;;;;;;5014653;28;20400;-82
2022/04/18 03:14:58;;;;;;;7.00;4.10;;;22.80;51.70;;;;;;4997953;28;20474;-82
2022/04/18 03:17:24;;;;;;;5.87;4.00;;;22.80;51.70;;;;;;5014229;28;20435;-82
2022/04/18 03:19:52;;;;;;;6.97;4.03;;;22.80;51.70;;;;;;5023180;28;20185;-82
2022/04/18 03:22:19;;;;;;;5.37;4.17;;;22.80;51.70;;;;;;5033603;28;20491;-82
2022/04/18 03:24:45;;;;;;;6.70;3.83;;;22.80;51.70;;;;;;5034215;28;20519;-82
2022/04/18 03:27:11;;;;;;;6.37;3.90;;;22.80;51.70;;;;;;5034297;28;20415;-82
2022/04/18 03:29:37;;;;;;;5.50;3.83;;;22.80;51.70;;;;;;5034156;28;20516;-82
2022/04/18 03:32:04;;;;;;;5.30;4.00;;;22.90;52.40;;;;;;5034183;28;20180;-82
2022/04/18 03:34:30;;;;;;;4.97;3.60;;;22.90;51.80;;;;;;5034970;28;20426;-82
2022/04/18 03:39:52;;;;;;;4.07;3.50;;;22.90;51.80;;;;;;5034410;28;20176;-82
2022/04/18 03:42:19;;;;;;;4.90;3.80;;;22.90;51.80;;;;;;5018077;28;20418;-82
2022/04/18 03:44:47;;;;;;;4.80;3.93;;;22.90;51.80;;;;;;5035219;28;20461;-81
2022/04/18 03:47:14;;;;;;;4.90;3.63;;;22.80;51.80;;;;;;5034990;28;20438;-82
2022/04/18 03:49:41;;;;;;;5.40;4.00;;;22.80;52.30;;;;;;5035012;28;20395;-82
2022/04/18 03:52:07;;;;;;;4.77;3.83;;;22.90;51.80;;;;;;5017899;28;20399;-82
2022/04/18 03:54:34;;;;;;;5.10;3.80;;;22.90;51.80;;;;;;5034736;28;20415;-82
2022/04/18 03:57:01;;;;;;;6.50;4.00;;;22.90;51.80;;;;;;5034688;28;20780;-82
2022/04/18 03:59:27;;;;;;;6.33;4.23;;;22.90;51.80;;;;;;5032980;28;20422;-81
2022/04/18 04:01:53;;;;;;;5.20;3.63;;;22.90;51.80;;;;;;5016316;28;20856;-82
2022/04/18 04:04:19;;;;;;;4.93;3.70;;;22.90;51.80;;;;;;5017099;28;20551;-81
2022/04/18 04:06:45;;;;;;;6.10;4.10;;;22.90;51.80;;;;;;5032393;28;20404;-81
2022/04/18 04:09:11;;;;;;;5.60;3.50;;;22.90;51.80;;;;;;5034226;28;20172;-81
2022/04/18 04:11:37;;;;;;;7.00;4.13;;;22.90;51.80;;;;;;5033712;28;20171;-81
2022/04/18 04:14:03;;;;;;;5.63;3.43;;;22.90;51.80;;;;;;5016029;28;20191;-80
2022/04/18 04:16:29;;;;;;;4.50;3.37;;;22.90;51.80;;;;;;5034457;28;20175;-81
2022/04/18 04:18:55;;;;;;;5.80;4.13;;;22.90;51.80;;;;;;5018754;28;20483;-82
2022/04/18 04:21:21;;;;;;;5.60;3.50;;;22.90;51.80;;;;;;5037988;28;20426;-82
2022/04/18 04:27:09;;;;;;;4.60;3.90;;;22.90;51.80;;;;;;5037177;28;20148;-82
2022/04/18 04:29:34;;;;;;;5.33;3.97;;;22.80;51.80;;;;;;5021324;28;20447;-82
2022/04/18 04:32:01;;;;;;;4.87;3.87;;;22.80;51.80;;;;;;5024742;28;20180;-82
2022/04/18 04:34:29;;;;;;;6.47;4.77;;;22.80;51.80;;;;;;5036523;28;20180;-82
2022/04/18 04:36:56;;;;;;;5.60;3.70;;;22.80;51.90;;;;;;5018395;28;20499;-82
2022/04/18 04:39:23;;;;;;;4.77;3.47;;;22.80;51.90;;;;;;5017715;28;20440;-82
2022/04/18 04:41:49;;;;;;;5.83;3.93;;;22.80;51.80;;;;;;5003545;28;20951;-82
2022/04/18 04:44:16;;;;;;;6.57;4.20;;;22.90;51.90;;;;;;5017285;28;20458;-82
2022/04/18 04:46:46;;;;;;;5.60;3.67;;;22.80;51.80;;;;;;5035095;28;20184;-82
2022/04/18 04:49:14;;;;;;;5.37;3.90;;;22.90;51.90;;;;;;5017684;28;20423;-82
2022/04/18 04:51:40;;;;;;;4.43;3.37;;;22.90;51.90;;;;;;5003530;28;20410;-82
2022/04/18 04:54:07;;;;;;;4.77;3.90;;;22.90;51.90;;;;;;5018600;28;20428;-82
2022/04/18 04:56:34;;;;;;;5.10;3.60;;;22.90;51.90;;;;;;5001982;28;20809;-82
2022/04/18 04:59:03;;;;;;;3.97;3.50;;;22.90;51.90;;;;;;5017713;28;20427;-82
2022/04/18 05:01:33;;;;;;;5.20;3.30;;;22.90;51.90;;;;;;5036428;28;20973;-82
2022/04/18 05:03:59;;;;;;;4.07;3.40;;;22.90;51.90;;;;;;5019663;28;20467;-82
2022/04/18 05:06:28;;;;;;;7.47;4.20;;;22.90;51.90;;;;;;5036989;28;20423;-82
2022/04/18 05:08:57;;;;;;;3.67;3.07;;;22.90;51.90;;;;;;5019553;28;20204;-82
2022/04/18 05:11:23;;;;;;;4.50;3.50;;;22.90;51.90;;;;;;5003333;28;20423;-82
2022/04/18 05:13:50;;;;;;;3.80;2.77;;;22.90;51.90;;;;;;5036384;28;20416;-82
2022/04/18 05:16:17;;;;;;;3.60;3.03;;;22.90;51.90;;;;;;5035787;28;20511;-82
2022/04/18 05:18:48;;;;;;;5.70;2.90;;;22.90;51.90;;;;;;5003541;28;20479;-82
2022/04/18 05:21:15;;;;;;;5.47;3.10;;;22.90;51.90;;;;;;5035000;28;20418;-82
2022/04/18 05:23:43;;;;;;;5.40;3.60;;;22.90;51.90;;;;;;5018370;28;20463;-82
2022/04/18 05:26:09;;;;;;;5.60;3.50;;;23.00;52.00;;;;;;5016168;28;20431;-82
2022/04/18 05:28:35;;;;;;;3.80;3.10;;;22.90;51.90;;;;;;5018582;28;20579;-82
2022/04/18 05:31:01;;;;;;;4.20;3.80;;;23.00;52.00;;;;;;5034980;28;20432;-83
2022/04/18 05:33:28;;;;;;;5.07;3.40;;;23.00;52.00;;;;;;5035684;28;20430;-81
2022/04/18 05:35:58;;;;;;;4.10;3.50;;;23.00;52.00;;;;;;5033688;28;20416;-81
2022/04/18 05:38:25;;;;;;;4.27;3.23;;;23.00;52.00;;;;;;5032290;28;20392;-82
2022/04/18 05:40:52;;;;;;;3.00;2.63;;;23.00;52.00;;;;;;5036007;28;20450;-82
2022/04/18 05:43:18;;;;;;;3.93;3.37;;;23.00;52.00;;;;;;5018588;28;20481;-82
2022/04/18 05:45:48;;;;;;;4.37;2.97;;;23.00;52.00;;;;;;5035747;28;20439;-82
2022/04/18 05:48:15;;;;;;;3.67;2.90;;;23.00;52.00;;;;;;5003013;28;20483;-82
2022/04/18 05:50:45;;;;;;;4.27;3.07;;;23.00;51.90;;;;;;5018562;28;20435;-82
2022/04/18 05:53:17;;;;;;;3.77;3.10;;;23.00;52.00;;;;;;5035854;28;20426;-82
2022/04/18 05:55:45;;;;;;;5.10;3.27;;;23.00;52.00;;;;;;5011013;28;20419;-82
2022/04/18 05:58:11;;;;;;;4.27;3.40;;;23.00;52.00;;;;;;5035476;28;20403;-82
2022/04/18 06:00:42;;;;;;;4.00;3.30;;;23.00;52.00;;;;;;5001765;28;20436;-82
2022/04/18 06:03:08;;;;;;;5.10;3.37;;;23.00;52.00;;;;;;5035393;28;20495;-82
2022/04/18 06:05:34;;;;;;;4.40;3.30;;;23.00;52.00;;;;;;5001111;28;21122;-82
2022/04/18 06:08:02;;;;;;;4.43;3.00;;;23.00;52.00;;;;;;5034736;28;20834;-83
2022/04/18 06:10:32;;;;;;;4.70;3.00;;;23.00;52.00;;;;;;5017546;28;20492;-82
2022/04/18 06:12:59;;;;;;;3.43;3.03;;;23.00;52.00;;;;;;5009104;28;20423;-82
2022/04/18 06:15:31;;;;;;;4.03;3.20;;;23.00;52.00;;;;;;5034386;28;20534;-82
2022/04/18 06:17:57;;;;;;;3.97;2.90;;;23.00;52.00;;;;;;5034629;28;20411;-82
2022/04/18 06:20:25;;;;;;;3.60;2.93;;;23.00;52.00;;;;;;5033897;28;20776;-82
2022/04/18 06:22:52;;;;;;;5.40;3.47;;;23.00;52.00;;;;;;5017222;28;20434;-82
2022/04/18 06:25:18;;;;;;;4.27;3.30;;;23.00;52.00;;;;;;5001584;28;20430;-82
2022/04/18 06:27:44;;;;;;;4.93;2.83;;;23.00;52.00;;;;;;5001659;28;20419;-82
2022/04/18 06:30:15;;;;;;;3.13;2.63;;;23.10;52.10;;;;;;5017410;28;20469;-83
2022/04/18 06:32:41;;;;;;;4.37;2.80;;;23.00;52.00;;;;;;5017290;28;20490;-82
2022/04/18 06:35:10;;;;;;;3.17;2.80;;;23.00;52.00;;;;;;5018201;28;20431;-82
2022/04/18 06:37:37;;;;;;;4.00;3.00;;;23.00;52.00;;;;;;5034896;28;20259;-82
2022/04/18 06:40:11;;;;;;;4.00;2.50;;;23.10;52.10;;;;;;5014611;28;20451;-82
2022/04/18 06:42:37;;;;;;;3.27;2.40;;;23.00;52.00;;;;;;5014408;28;20503;-81
2022/04/18 06:45:06;;;;;;;3.10;2.70;;;23.10;52.10;;;;;;5013755;28;20467;-81
2022/04/18 06:47:35;;;;;;;5.10;2.80;;;23.10;52.10;;;;;;5012863;28;20417;-81
2022/04/18 06:50:08;;;;;;;3.43;2.77;;;23.10;52.20;;;;;;5014014;28;20412;-80
2022/04/18 06:52:41;;;;;;;2.77;2.50;;;23.10;52.10;;;;;;5014527;28;20404;-81
2022/04/18 06:55:09;;;;;;;3.07;2.50;;;23.10;52.10;;;;;;4997237;28;20814;-81
2022/04/18 06:57:35;;;;;;;4.17;2.97;;;23.10;52.10;;;;;;5013441;28;20432;-81
2022/04/18 07:00:04;;;;;;;3.20;2.90;;;23.10;52.10;;;;;;4996998;28;20423;-81
2022/04/18 07:02:32;;;;;;;3.10;2.70;;;23.10;52.10;;;;;;4995905;28;20424;-81
2022/04/18 07:05:00;;;;;;;3.97;2.90;;;23.10;52.10;;;;;;5014722;28;20515;-81
2022/04/18 07:07:27;;;;;;;4.37;2.47;;;23.10;52.10;;;;;;5015039;28;20471;-81
2022/04/18 07:09:58;;;;;;;5.17;3.03;;;23.10;52.10;;;;;;5015184;28;20416;-81
2022/04/18 07:12:24;;;;;;;3.63;2.83;;;23.10;52.10;;;;;;4999181;28;20411;-81
2022/04/18 07:14:51;;;;;;;3.80;3.13;;;23.10;52.10;;;;;;4997747;28;20428;-81
2022/04/18 07:17:21;;;;;;;3.27;2.90;;;23.10;52.10;;;;;;4997781;28;20539;-81
2022/04/18 07:19:49;;;;;;;2.90;2.40;;;23.10;52.10;;;;;;5014800;28;20396;-81
2022/04/18 07:22:16;;;;;;;4.53;3.13;;;23.10;52.20;;;;;;4981303;28;20431;-82
2022/04/18 07:24:42;;;;;;;3.60;2.60;;;23.10;52.10;;;;;;5014968;28;20467;-82
2022/04/18 07:27:11;;;;;;;2.73;2.10;;;23.10;52.10;;;;;;4997076;28;20424;-81
2022/04/18 07:29:37;;;;;;;3.70;2.60;;;23.10;52.10;;;;;;4997357;28;20427;-81
2022/04/18 07:32:05;;;;;;;2.80;2.60;;;23.20;52.20;;;;;;5013412;28;20527;-82
2022/04/18 07:34:33;;;;;;;3.57;2.67;;;23.20;52.20;;;;;;5014632;28;20420;-81
2022/04/18 07:37:01;;;;;;;4.37;2.77;;;23.20;52.20;;;;;;4997650;28;20426;-82
2022/04/18 07:39:27;;;;;;;3.80;2.60;;;23.10;52.10;;;;;;5013997;28;20485;-81
2022/04/18 07:41:54;;;;;;;3.53;2.87;;;23.20;52.20;;;;;;5031960;28;20427;-82
2022/04/18 07:44:20;;;;;;;2.97;2.47;;;23.10;52.10;;;;;;5017062;28;20200;-81
2022/04/18 07:46:46;;;;;;;4.80;2.60;;;23.10;52.10;;;;;;5034863;28;20430;-81
2022/04/18 07:49:13;;;;;;;2.93;2.70;;;23.20;52.20;;;;;;5016149;28;20463;-84
2022/04/18 07:51:40;;;;;;;3.90;3.10;;;23.20;52.20;;;;;;5000625;28;20411;-81
2022/04/18 07:54:27;;;;;;;3.60;2.50;;;23.20;52.20;;;;;;5020805;28;20419;-80
2022/04/18 07:56:55;;;;;;;3.33;2.80;;;23.20;52.20;;;;;;5035306;28;20481;-82
2022/04/18 07:59:22;;;;;;;3.73;2.60;;;23.20;52.20;;;;;;4988541;28;20427;-82
2022/04/18 08:01:47;;;;;;;3.90;2.80;;;23.20;52.30;;;;;;5019952;28;20419;-82
2022/04/18 08:04:18;;;;;;;3.70;2.70;;;23.20;52.30;;;;;;5037006;28;20471;-81
2022/04/18 08:06:44;;;;;;;4.13;2.70;;;23.20;52.30;;;;;;5037355;28;20172;-81
2022/04/18 08:09:11;;;;;;;3.37;2.50;;;23.20;52.30;;;;;;5035291;28;20408;-82
2022/04/18 08:11:41;;;;;;;4.20;2.60;;;23.10;52.20;;;;;;5019909;28;20454;-81
2022/04/18 08:14:07;;;;;;;3.80;3.30;;;23.20;52.30;;;;;;5037484;28;20411;-83
2022/04/18 08:16:33;;;;;;;3.83;3.03;;;23.20;52.30;;;;;;5020189;28;20427;-81
2022/04/18 08:19:00;;;;;;;3.83;2.87;;;23.20;52.30;;;;;;5036174;28;20454;-82
2022/04/18 08:21:26;;;;;;;4.17;3.00;;;23.20;52.30;;;;;;5003577;28;20419;-82
2022/04/18 08:23:57;;;;;;;2.70;2.50;;;23.20;52.30;;;;;;5036429;28;20438;-81
2022/04/18 08:26:26;;;;;;;4.77;3.07;;;23.20;52.30;;;;;;5036901;28;20395;-82
2022/04/18 08:28:57;;;;;;;4.93;2.97;;;23.20;52.30;;;;;;5021110;28;20407;-82
2022/04/18 08:31:23;;;;;;;3.80;3.00;;;23.20;52.30;;;;;;5003918;28;20446;-82
2022/04/18 08:33:51;;;;;;;3.33;3.03;;;23.20;52.30;;;;;;5037753;28;20439;-82
2022/04/18 08:36:17;;;;;;;2.90;2.70;;;23.20;52.30;;;;;;5020169;28;20426;-82
2022/04/18 08:38:48;;;;;;;3.17;2.63;;;23.20;52.30;;;;;;5035686;28;20425;-81
2022/04/18 08:41:22;;;;;;;4.67;2.80;;;23.20;52.30;;;;;;5019312;28;20415;-83
2022/04/18 08:43:57;;;;;;;4.70;3.40;;;23.20;52.30;;;;;;5019023;28;20462;-81
2022/04/18 08:46:24;;;;;;;3.97;2.93;;;23.20;52.30;;;;;;5036614;28;20383;-82
2022/04/18 08:54:24;;;;;;;3.87;3.10;;;23.20;52.80;;;;;;5029357;28;20485;-83
2022/04/18 08:56:50;;;;;;;4.23;2.90;;;23.20;52.30;;;;;;4999865;28;20431;-83
2022/04/18 08:59:19;;;;;;;4.20;2.97;;;23.20;52.30;;;;;;5014598;28;20451;-82
2022/04/18 09:01:52;;;;;;;3.33;2.50;;;23.20;52.30;;;;;;5016850;28;20417;-82
2022/04/18 09:04:20;;;;;;;3.40;2.80;;;23.20;52.30;;;;;;5015595;28;20463;-82
2022/04/18 09:06:47;;;;;;;5.03;3.00;;;23.20;52.30;;;;;;5016686;28;20396;-82
2022/04/18 09:09:16;;;;;;;3.90;2.97;;;23.20;52.30;;;;;;5022056;28;20415;-82
2022/04/18 09:11:58;;;;;;;2.90;2.60;;;23.20;52.30;;;;;;5018818;28;20415;-82
2022/04/18 09:14:31;;;;;;;3.20;2.60;;;23.20;52.30;;;;;;5035488;28;20451;-82
2022/04/18 09:16:57;;;;;;;3.00;2.50;;;23.20;52.30;;;;;;5035959;28;20457;-82
2022/04/18 09:19:25;;;;;;;2.30;1.90;;;23.10;52.20;;;;;;5034145;28;20422;-82
2022/04/18 09:22:03;;;;;;;6.30;4.07;;;23.20;52.30;;;;;;5001418;28;20500;-83
2022/04/18 09:24:41;;;;;;;3.50;3.00;;;23.20;52.30;;;;;;5035596;28;20485;-82
2022/04/18 09:27:34;;;;;;;3.90;2.33;;;23.20;52.30;;;;;;5018422;28;20435;-82
2022/04/18 09:30:05;;;;;;;3.20;2.63;;;23.20;52.30;;;;;;5019348;28;20467;-82
2022/04/18 09:32:40;;;;;;;2.97;2.20;;;23.20;52.30;;;;;;5037471;28;20423;-82
2022/04/18 09:35:08;;;;;;;3.20;2.33;;;23.20;52.30;;;;;;5019460;28;20437;-82
2022/04/18 09:37:36;;;;;;;3.43;2.70;;;23.20;52.30;;;;;;5018739;28;20415;-82
2022/04/18 09:40:05;;;;;;;3.30;2.40;;;23.20;52.30;;;;;;5035913;28;20419;-81
2022/04/18 09:42:31;;;;;;;4.90;2.43;;;23.20;52.40;;;;;;5019484;28;20415;-83
2022/04/18 09:44:59;;;;;;;2.87;2.50;;;23.20;52.30;;;;;;5034990;28;20450;-82
2022/04/18 09:53:24;;;;;;;2.80;2.30;;;23.20;52.30;;;;;;5035962;28;20486;-84
2022/04/18 09:55:53;;;;;;;2.73;2.10;;;23.20;52.40;;;;;;5034787;28;20415;-83
2022/04/18 09:58:29;;;;;;;3.27;2.23;;;23.10;52.90;;;;;;5034967;28;20415;-82
2022/04/18 10:00:59;;;;;;;4.03;2.83;;;23.20;52.40;;;;;;5018949;28;20426;-82
2022/04/18 10:03:27;;;;;;;3.40;2.77;;;23.20;52.40;;;;;;5034568;28;20490;-84
2022/04/18 10:05:58;;;;;;;2.63;2.43;;;23.20;52.40;;;;;;5018371;28;20415;-82
2022/04/18 10:08:27;;;;;;;2.90;2.20;;;23.20;52.40;;;;;;5035848;28;20391;-82
2022/04/18 10:10:57;;;;;;;2.53;2.17;;;23.20;52.40;;;;;;5001996;28;20431;-83
2022/04/18 10:14:07;;;;;;;;;;;;;;;;;;;;;
2022/04/18 10:16:52;;;;;;;;;;;;;;;;;;;;;
2022/04/18 10:19:41;;;;;;;4.13;2.57;;;23.20;52.30;;;;;;5035266;28;20428;-82
2022/04/18 10:22:45;;;;;;;3.93;2.40;;;23.20;52.30;;;;;;5018652;28;20411;-82
2022/04/18 10:25:52;;;;;;;3.10;2.50;;;23.20;52.40;;;;;;5017912;28;20469;-82
2022/04/18 10:31:21;;;;;;;3.23;2.10;;;23.20;52.40;;;;;;5035443;28;20442;-82
2022/04/18 10:33:47;;;;;;;2.57;1.93;;;23.20;52.40;;;;;;5017141;28;20465;-82
2022/04/18 10:36:32;;;;;;;3.87;2.67;;;23.20;52.40;;;;;;5033941;28;20427;-83
2022/04/18 10:39:06;;;;;;;4.50;2.70;;;23.20;52.40;;;;;;5019936;28;20412;-82
2022/04/18 10:41:38;;;;;;;3.40;2.17;;;23.20;52.40;;;;;;4998333;28;20419;-83
2022/04/18 10:44:17;;;;;;;3.60;2.70;;;23.20;52.40;;;;;;5014842;28;20965;-82
2022/04/18 10:53:35;;;;;;;2.80;2.50;;;23.20;52.40;;;;;;5416997;23;20503;-83
2022/04/18 10:56:01;;;;;;;3.47;2.37;;;23.20;52.40;;;;;;4998457;28;20428;-83
2022/04/18 10:58:31;;;;;;;3.03;2.17;;;23.20;52.40;;;;;;5023870;28;20436;-83
2022/04/18 11:00:59;;;;;;;3.00;2.30;;;23.20;52.40;;;;;;5015325;28;20179;-83
2022/04/18 11:03:55;;;;;;;2.50;2.00;;;23.20;52.40;;;;;;5016751;28;20458;-83
2022/04/18 11:06:46;;;;;;;4.37;2.30;;;23.20;52.40;;;;;;5009768;28;20427;-83
2022/04/18 11:09:20;;;;;;;2.77;2.40;;;23.20;52.40;;;;;;4955358;29;20427;-82
2022/04/18 11:12:12;;;;;;;3.50;2.30;;;23.10;52.30;;;;;;4935658;29;20419;-82
2022/04/18 11:14:46;;;;;;;3.07;2.10;;;23.20;53.00;;;;;;4936251;29;20422;-83
2022/04/18 11:17:40;;;;;;;2.27;1.90;;;23.20;52.40;;;;;;4956823;29;20485;-83
2022/04/18 11:20:32;;;;;;;3.87;2.47;;;23.20;52.40;;;;;;4941402;29;20419;-83
2022/04/18 11:23:22;;;;;;;3.30;2.40;;;23.20;52.40;;;;;;4954107;29;20510;-83
2022/04/18 11:26:02;;;;;;;2.30;1.77;;;23.20;52.40;;;;;;4956750;29;20478;-83
2022/04/18 11:28:39;;;;;;;3.50;2.00;;;23.20;52.40;;;;;;4961474;29;20440;-83
2022/04/18 11:31:30;;;;;;;3.10;1.90;;;23.20;52.40;;;;;;4972998;29;20413;-83
2022/04/18 11:34:02;;;;;;;2.80;1.97;;;23.20;52.50;;;;;;4980046;29;20414;-83
2022/04/18 11:36:33;;;;;;;2.50;2.10;;;23.20;52.50;;;;;;4963123;29;20507;-83
2022/04/18 11:39:14;;;;;;;2.83;2.00;;;23.20;52.40;;;;;;4979360;29;20386;-83
2022/04/18 11:41:45;;;;;;;5.33;2.80;;;23.20;52.40;;;;;;4963380;29;20421;-83
2022/04/18 11:44:17;;;;;;;4.50;2.30;;;23.20;52.40;;;;;;4961646;29;20532;-84
2022/04/18 11:46:44;;;;;;;3.00;2.20;;;23.20;52.50;;;;;;4990415;28;20484;-83
2022/04/18 11:49:12;;;;;;;2.70;1.80;;;23.20;52.40;;;;;;5019087;28;20412;-83
2022/04/18 11:51:50;;;;;;;3.03;2.00;;;23.20;52.40;;;;;;4997149;28;20439;-83
2022/04/18 11:54:16;;;;;;;4.13;2.23;;;23.20;52.40;;;;;;5023528;28;20442;-83
2022/04/18 11:59:49;;;;;;;4.50;2.20;;;23.20;52.40;;;;;;4968215;29;20465;-83
2022/04/18 12:08:10;;;;;;;4.83;2.73;;;23.20;52.40;;;;;;5038358;28;20403;-83
2022/04/18 12:10:38;;;;;;;2.97;2.20;;;23.20;52.40;;;;;;5005445;28;20457;-83
2022/04/18 12:13:09;;;;;;;2.93;2.10;;;23.10;52.40;;;;;;5038278;28;20467;-82
2022/04/18 12:15:41;;;;;;;2.27;1.97;;;23.10;52.40;;;;;;5021159;28;20442;-83
2022/04/18 12:18:20;;;;;;;4.30;2.43;;;23.20;52.40;;;;;;5022245;28;20420;-83
2022/04/18 12:20:54;;;;;;;2.43;1.80;;;23.20;52.40;;;;;;5021478;28;20418;-83
2022/04/18 12:23:26;;;;;;;2.20;1.70;;;23.20;52.40;;;;;;5005647;28;20477;-83
2022/04/18 12:26:03;;;;;;;2.57;2.10;;;23.20;52.40;;;;;;5021973;28;20403;-83
2022/04/18 12:28:31;;;;;;;3.40;2.20;;;23.20;52.40;;;;;;5020146;28;20403;-82
2022/04/18 12:31:23;;;;;;;2.80;2.13;;;23.20;52.40;;;;;;5038714;28;20411;-83
2022/04/18 12:33:59;;;;;;;3.10;2.73;;;23.20;52.40;;;;;;5021996;28;20422;-83
2022/04/18 12:36:33;;;;;;;2.43;2.00;;;23.20;53.00;;;;;;5019930;28;20473;-83
2022/04/18 12:39:06;;;;;;;2.53;2.03;;;23.10;52.40;;;;;;5019538;28;20426;-83
2022/04/18 12:41:39;;;;;;;2.37;1.87;;;23.10;52.40;;;;;;5021366;28;20416;-83
2022/04/18 12:44:14;;;;;;;2.83;2.23;;;23.10;52.40;;;;;;5021040;28;20435;-82
2022/04/18 12:46:41;;;;;;;2.47;2.27;;;23.10;52.40;;;;;;5038184;28;20414;-83
2022/04/18 12:49:11;;;;;;;2.33;2.03;;;23.10;52.40;;;;;;5038462;28;20391;-82
2022/04/18 12:51:49;;;;;;;2.23;1.70;;;23.10;52.40;;;;;;5017739;28;20415;-83
2022/04/18 12:54:27;;;;;;;1.93;1.70;;;23.10;52.40;;;;;;5006531;28;20450;-82
2022/04/18 12:56:56;;;;;;;2.87;2.20;;;23.10;52.40;;;;;;5037797;28;20410;-82
2022/04/18 13:02:57;;;;;;;3.00;2.00;;;23.10;52.40;;;;;;5037941;28;20363;-82
2022/04/18 13:05:27;;;;;;;2.77;2.57;;;23.10;52.50;;;;;;5021027;28;20423;-82
2022/04/18 13:07:57;;;;;;;3.00;2.07;;;23.10;52.50;;;;;;5020547;28;20392;-82
2022/04/18 13:10:27;;;;;;;3.30;2.20;;;23.10;52.50;;;;;;5020665;28;20415;-82
2022/04/18 13:13:19;;;;;;;2.70;1.83;;;23.10;52.50;;;;;;5037727;28;20395;-82
2022/04/18 13:15:46;;;;;;;2.13;1.90;;;23.10;52.50;;;;;;5029571;28;20418;-82
2022/04/18 13:18:23;;;;;;;2.93;1.87;;;23.10;52.50;;;;;;5038272;28;20399;-82
2022/04/18 13:20:49;;;;;;;2.90;2.03;;;23.10;52.50;;;;;;5021162;28;20482;-82
2022/04/18 13:23:15;;;;;;;2.80;1.87;;;23.10;52.50;;;;;;5020160;28;20427;-83
2022/04/18 13:25:41;;;;;;;1.90;1.53;;;23.10;52.50;;;;;;5038871;28;20427;-82
2022/04/18 13:28:09;;;;;;;2.87;1.97;;;23.10;52.50;;;;;;5037143;28;20423;-82
2022/04/18 13:30:39;;;;;;;2.37;1.80;;;23.10;52.50;;;;;;5037196;28;20433;-82
2022/04/18 13:33:23;;;;;;;2.70;2.07;;;23.10;52.40;;;;;;5021444;28;20454;-83
2022/04/18 13:38:33;;;;;;;2.90;2.00;;;23.10;52.40;;;;;;5037179;28;20382;-83
2022/04/18 13:40:59;;;;;;;2.70;1.97;;;23.10;52.40;;;;;;5019822;28;20450;-83
2022/04/18 13:43:25;;;;;;;3.00;1.97;;;23.10;52.40;;;;;;5019309;28;20207;-83
2022/04/18 13:45:51;;;;;;;2.10;1.73;;;23.10;52.40;;;;;;5037148;28;20179;-84
2022/04/18 13:48:18;;;;;;;2.80;1.80;;;23.10;52.40;;;;;;5019855;28;20203;-83